Time;durP1;ratioP1;P1;durP2;ratioP2;P2;SDS_P1;SDS_P2;PMS_P1;PMS_P2;Temp;Humidity;BMP_temperature;BMP_pressure;BME280_temperature;BME280_humidity;BME280_pressure;Samples;Min_cycle;Max_cycle;Signal;HPM_P1;HPM_P2
2022/02/27 00:02:16;;;;;;;6.28;1.38;;;0.90;99.90;;;;;;5088568;28;20187;-68
2022/02/27 00:04:42;;;;;;;3.00;1.77;;;0.80;99.90;;;;;;5089923;28;20208;-67
2022/02/27 00:07:08;;;;;;;2.90;1.48;;;0.70;99.90;;;;;;5083683;28;20184;-67
2022/02/27 00:09:33;;;;;;;5.82;1.52;;;0.50;99.90;;;;;;5069932;28;20177;-68
2022/02/27 00:11:59;;;;;;;3.80;1.10;;;0.50;99.90;;;;;;5073371;28;20563;-67
2022/02/27 00:14:25;;;;;;;3.58;1.52;;;0.60;99.90;;;;;;5072960;28;20255;-67
2022/02/27 00:16:52;;;;;;;4.28;1.60;;;0.60;99.90;;;;;;5090063;28;20160;-66
2022/02/27 00:19:21;;;;;;;2.17;1.35;;;0.60;99.90;;;;;;5088757;28;20200;-67
2022/02/27 00:21:47;;;;;;;3.58;1.48;;;0.60;99.90;;;;;;5083704;28;20195;-67
2022/02/27 00:24:13;;;;;;;2.92;1.58;;;0.80;99.90;;;;;;5070037;28;20188;-69
2022/02/27 00:26:38;;;;;;;0.85;0.82;;;0.70;99.90;;;;;;5069864;28;20187;-67
2022/02/27 00:29:04;;;;;;;2.05;1.33;;;0.80;99.90;;;;;;5069889;28;20213;-67
2022/02/27 00:31:30;;;;;;;1.90;1.25;;;0.70;99.90;;;;;;5069767;28;20177;-67
2022/02/27 00:33:56;;;;;;;1.42;1.33;;;0.70;99.90;;;;;;5082649;28;20214;-67
2022/02/27 00:36:22;;;;;;;2.63;1.45;;;0.70;99.90;;;;;;5089775;28;20156;-67
2022/02/27 00:38:48;;;;;;;1.88;1.15;;;0.70;99.90;;;;;;5088420;28;20179;-67
2022/02/27 00:41:14;;;;;;;1.85;1.30;;;0.60;99.90;;;;;;5088417;28;20175;-67
2022/02/27 00:43:40;;;;;;;5.28;2.15;;;0.60;99.90;;;;;;5089530;28;20192;-68
2022/02/27 00:46:06;;;;;;;3.15;1.60;;;0.60;99.90;;;;;;5089086;28;20152;-67
2022/02/27 00:48:36;;;;;;;3.72;1.25;;;0.50;99.90;;;;;;5088377;28;20186;-67
2022/02/27 00:51:02;;;;;;;3.95;1.40;;;0.50;99.90;;;;;;5089525;28;20153;-68
2022/02/27 00:53:28;;;;;;;1.92;1.65;;;0.50;99.90;;;;;;5089604;28;20191;-67
2022/02/27 00:55:54;;;;;;;3.25;1.45;;;0.50;99.90;;;;;;5081190;28;20184;-67
2022/02/27 00:58:19;;;;;;;1.40;0.93;;;0.70;99.90;;;;;;5068046;28;20171;-67
2022/02/27 01:00:45;;;;;;;2.40;1.02;;;0.70;99.90;;;;;;5073452;28;20172;-67
2022/02/27 01:03:11;;;;;;;3.40;1.10;;;0.70;99.90;;;;;;5087766;28;20228;-68
2022/02/27 01:05:37;;;;;;;1.42;1.13;;;0.70;99.90;;;;;;5089322;28;20191;-67
2022/02/27 01:08:05;;;;;;;2.03;1.30;;;0.90;99.90;;;;;;5089618;28;20184;-68
2022/02/27 01:10:31;;;;;;;5.00;1.70;;;1.00;99.90;;;;;;5089461;28;20182;-67
2022/02/27 01:12:57;;;;;;;2.88;1.35;;;1.00;99.90;;;;;;5089356;28;20199;-67
2022/02/27 01:15:23;;;;;;;2.60;1.40;;;1.00;99.90;;;;;;5089311;28;20156;-68
2022/02/27 01:17:49;;;;;;;2.08;1.42;;;1.10;99.90;;;;;;5089316;28;20227;-68
2022/02/27 01:20:15;;;;;;;2.53;1.30;;;1.00;99.90;;;;;;5089288;28;20175;-67
2022/02/27 01:22:41;;;;;;;1.80;1.15;;;1.10;99.90;;;;;;5085595;28;20252;-67
2022/02/27 01:25:09;;;;;;;1.58;1.05;;;1.30;99.90;;;;;;5068906;28;20259;-67
2022/02/27 01:27:35;;;;;;;4.25;1.20;;;1.20;99.90;;;;;;5067608;28;20223;-67
2022/02/27 01:30:05;;;;;;;2.80;1.25;;;1.10;99.90;;;;;;5069009;28;20251;-67
2022/02/27 01:32:31;;;;;;;3.17;1.30;;;1.20;99.90;;;;;;5068977;28;20149;-68
2022/02/27 01:34:56;;;;;;;3.97;1.58;;;1.30;99.90;;;;;;5067731;28;20176;-67
2022/02/27 01:37:22;;;;;;;1.48;1.20;;;1.20;99.90;;;;;;5067524;28;20200;-67
2022/02/27 01:39:48;;;;;;;2.20;1.38;;;1.40;99.90;;;;;;5068990;28;20216;-67
2022/02/27 01:42:16;;;;;;;2.72;1.08;;;1.60;99.90;;;;;;5068977;28;20172;-67
2022/02/27 01:44:43;;;;;;;3.05;1.42;;;1.70;99.90;;;;;;5067629;28;20196;-67
2022/02/27 01:47:12;;;;;;;1.17;1.05;;;1.80;99.90;;;;;;5067433;28;20196;-67
2022/02/27 01:49:39;;;;;;;7.43;1.50;;;2.00;99.90;;;;;;5068864;28;20153;-68
2022/02/27 01:52:06;;;;;;;1.70;1.35;;;2.10;99.90;;;;;;5068878;28;20175;-67
2022/02/27 01:54:33;;;;;;;1.30;0.90;;;2.10;99.90;;;;;;5068698;28;20161;-67
2022/02/27 01:57:00;;;;;;;1.63;1.40;;;2.00;99.90;;;;;;5068864;28;20197;-67
2022/02/27 01:59:27;;;;;;;2.50;1.38;;;2.10;99.90;;;;;;5074795;28;20184;-69
2022/02/27 02:01:53;;;;;;;4.57;1.27;;;2.20;99.90;;;;;;5092586;28;20182;-68
2022/02/27 02:04:19;;;;;;;4.05;1.15;;;2.30;99.90;;;;;;5091110;28;20291;-67
2022/02/27 02:06:45;;;;;;;3.65;1.73;;;2.20;99.90;;;;;;5092519;28;20195;-67
2022/02/27 02:09:12;;;;;;;4.70;1.63;;;2.30;99.90;;;;;;5092727;28;20304;-68
2022/02/27 02:11:39;;;;;;;1.35;1.15;;;2.40;99.90;;;;;;5092601;28;20572;-69
2022/02/27 02:14:06;;;;;;;1.83;1.30;;;2.50;99.90;;;;;;5091182;28;20183;-68
2022/02/27 02:16:39;;;;;;;4.07;1.33;;;2.50;99.90;;;;;;5091221;28;20196;-68
2022/02/27 02:19:06;;;;;;;3.50;1.05;;;2.50;99.90;;;;;;5092424;28;20171;-68
2022/02/27 02:21:46;;;;;;;6.03;1.90;;;2.60;99.90;;;;;;5092461;28;20160;-68
2022/02/27 02:24:14;;;;;;;4.10;1.55;;;2.60;99.90;;;;;;5092273;28;20187;-68
2022/02/27 02:26:41;;;;;;;1.58;1.42;;;2.80;99.90;;;;;;5092225;28;20199;-68
2022/02/27 02:29:09;;;;;;;1.52;1.17;;;2.70;99.90;;;;;;5092292;28;20217;-68
2022/02/27 02:31:36;;;;;;;2.13;1.02;;;2.70;99.90;;;;;;5092165;28;20244;-69
2022/02/27 02:34:07;;;;;;;2.22;1.23;;;2.70;99.90;;;;;;5092185;28;20160;-69
2022/02/27 02:36:33;;;;;;;1.85;1.30;;;2.70;99.90;;;;;;5092048;28;20218;-69
2022/02/27 02:39:00;;;;;;;1.27;1.17;;;2.80;99.90;;;;;;5092005;28;20171;-68
2022/02/27 02:41:26;;;;;;;3.97;1.15;;;2.70;99.90;;;;;;5092052;28;20164;-66
2022/02/27 02:43:52;;;;;;;2.50;1.50;;;2.80;99.90;;;;;;5091836;28;20191;-69
2022/02/27 02:46:18;;;;;;;2.28;1.45;;;2.80;99.90;;;;;;5091860;28;20195;-69
2022/02/27 02:48:44;;;;;;;2.03;1.25;;;2.80;99.90;;;;;;5091863;28;20168;-68
2022/02/27 02:51:10;;;;;;;2.40;1.40;;;2.80;99.90;;;;;;5091723;28;20156;-70
2022/02/27 02:53:37;;;;;;;1.55;1.15;;;2.80;99.90;;;;;;5091649;28;20157;-69
2022/02/27 02:56:08;;;;;;;2.10;1.15;;;2.80;99.90;;;;;;5091616;28;20188;-68
2022/02/27 02:58:35;;;;;;;2.47;1.52;;;2.80;99.90;;;;;;5090387;28;20241;-68
2022/02/27 03:01:02;;;;;;;1.55;1.20;;;2.80;99.90;;;;;;5082538;28;20164;-68
2022/02/27 03:03:29;;;;;;;3.05;1.45;;;2.80;99.90;;;;;;5090219;28;20574;-69
2022/02/27 03:05:55;;;;;;;1.33;1.20;;;2.80;99.90;;;;;;5091489;28;20218;-68
2022/02/27 03:08:21;;;;;;;2.13;1.50;;;2.80;99.90;;;;;;5091551;28;20157;-69
2022/02/27 03:10:47;;;;;;;9.55;6.15;;;2.70;99.90;;;;;;5090715;28;20219;-69
2022/02/27 03:13:13;;;;;;;5.25;3.35;;;2.80;99.90;;;;;;5090197;28;20172;-69
2022/02/27 03:15:38;;;;;;;2.28;1.73;;;2.80;99.90;;;;;;5091269;28;20199;-68
2022/02/27 03:18:04;;;;;;;2.78;1.60;;;2.80;99.90;;;;;;5091208;28;20224;-68
2022/02/27 03:20:31;;;;;;;1.92;1.50;;;2.80;99.90;;;;;;5091323;28;20224;-68
2022/02/27 03:22:56;;;;;;;2.15;1.30;;;2.90;99.90;;;;;;5091239;28;20184;-68
2022/02/27 03:25:23;;;;;;;2.95;1.23;;;2.90;99.90;;;;;;5089708;28;20208;-68
2022/02/27 03:27:49;;;;;;;2.30;1.70;;;3.00;99.90;;;;;;5089887;28;20164;-68
2022/02/27 03:30:16;;;;;;;3.90;1.42;;;2.90;99.90;;;;;;5091136;28;20167;-68
2022/02/27 03:32:46;;;;;;;3.45;1.42;;;2.90;99.90;;;;;;5091067;28;20186;-68
2022/02/27 03:35:16;;;;;;;1.48;1.38;;;3.00;99.90;;;;;;5090902;28;20227;-68
2022/02/27 03:37:43;;;;;;;1.88;1.70;;;3.00;99.90;;;;;;5091039;28;20199;-68
2022/02/27 03:40:09;;;;;;;2.72;1.48;;;3.10;99.90;;;;;;5090894;28;20160;-67
2022/02/27 03:42:36;;;;;;;3.67;1.75;;;3.10;99.90;;;;;;5090914;28;20160;-69
2022/02/27 03:45:03;;;;;;;3.13;1.75;;;3.00;99.90;;;;;;5090794;28;20213;-68
2022/02/27 03:47:29;;;;;;;2.13;1.05;;;3.00;99.90;;;;;;5090634;28;20274;-69
2022/02/27 03:49:55;;;;;;;2.05;1.52;;;3.00;99.90;;;;;;5090709;28;20167;-68
2022/02/27 03:52:21;;;;;;;3.03;1.50;;;3.10;99.90;;;;;;5090726;28;20239;-68
2022/02/27 03:54:48;;;;;;;1.35;1.20;;;3.10;99.90;;;;;;5090560;28;20156;-68
2022/02/27 03:57:14;;;;;;;2.22;1.42;;;3.20;99.90;;;;;;5090415;28;20283;-68
2022/02/27 03:59:40;;;;;;;1.80;1.20;;;3.20;99.90;;;;;;5086458;28;20169;-68
2022/02/27 04:02:06;;;;;;;1.95;1.38;;;3.20;99.90;;;;;;5084029;28;20209;-68
2022/02/27 04:04:32;;;;;;;1.52;1.00;;;3.20;99.90;;;;;;5090295;28;20188;-68
2022/02/27 04:06:58;;;;;;;2.28;1.23;;;3.10;99.90;;;;;;5090350;28;20187;-68
2022/02/27 04:09:24;;;;;;;1.90;1.48;;;3.10;99.90;;;;;;5090281;28;20243;-68
2022/02/27 04:11:50;;;;;;;2.20;1.10;;;3.20;99.90;;;;;;5090252;28;20164;-68
2022/02/27 04:14:15;;;;;;;2.72;1.75;;;3.10;99.90;;;;;;5090156;28;20156;-68
2022/02/27 04:16:42;;;;;;;4.10;1.85;;;3.20;99.90;;;;;;5089969;28;20195;-68
2022/02/27 04:19:07;;;;;;;2.05;1.50;;;3.10;99.90;;;;;;5089932;28;20259;-68
2022/02/27 04:21:34;;;;;;;4.90;2.15;;;3.10;99.90;;;;;;5089203;28;20640;-68
2022/02/27 04:24:01;;;;;;;2.03;1.30;;;3.10;99.90;;;;;;5088494;28;20196;-68
2022/02/27 04:26:27;;;;;;;1.95;1.35;;;3.10;99.90;;;;;;5088432;28;20156;-68
2022/02/27 04:28:53;;;;;;;2.92;1.80;;;3.00;99.90;;;;;;5088485;28;20657;-68
2022/02/27 04:31:19;;;;;;;3.10;1.45;;;3.00;99.90;;;;;;5088591;28;20161;-68
2022/02/27 04:33:45;;;;;;;1.83;1.33;;;3.00;99.90;;;;;;5089745;28;20578;-68
2022/02/27 04:36:12;;;;;;;2.78;1.70;;;3.00;99.90;;;;;;5089872;28;20168;-68
2022/02/27 04:38:38;;;;;;;2.00;1.45;;;3.00;99.90;;;;;;5089741;28;20207;-68
2022/02/27 04:41:04;;;;;;;2.05;1.60;;;3.00;99.90;;;;;;5089664;28;20218;-68
2022/02/27 04:43:30;;;;;;;1.67;1.40;;;2.90;99.90;;;;;;5089700;28;20171;-68
2022/02/27 04:45:56;;;;;;;2.83;1.90;;;2.80;99.90;;;;;;5089612;28;20180;-68
2022/02/27 04:48:22;;;;;;;2.53;1.67;;;2.80;99.90;;;;;;5088277;28;20192;-69
2022/02/27 04:50:48;;;;;;;3.58;1.58;;;2.80;99.90;;;;;;5089615;28;20161;-68
2022/02/27 04:53:14;;;;;;;2.05;1.52;;;2.70;99.90;;;;;;5089572;28;20165;-68
2022/02/27 04:55:41;;;;;;;1.95;1.20;;;2.70;99.90;;;;;;5089583;28;20156;-68
2022/02/27 04:58:08;;;;;;;3.13;1.50;;;2.60;99.90;;;;;;5088305;28;20167;-68
2022/02/27 05:00:34;;;;;;;3.10;1.52;;;2.60;99.90;;;;;;5089644;28;20149;-68
2022/02/27 05:03:00;;;;;;;1.67;1.40;;;2.50;99.90;;;;;;5089251;28;20275;-68
2022/02/27 05:05:26;;;;;;;3.58;2.15;;;2.40;99.90;;;;;;5089325;28;20219;-68
2022/02/27 05:07:52;;;;;;;3.05;1.60;;;2.40;99.90;;;;;;5089486;28;20160;-68
2022/02/27 05:10:18;;;;;;;1.77;1.55;;;2.40;99.90;;;;;;5088221;28;20210;-68
2022/02/27 05:12:44;;;;;;;1.80;1.25;;;2.40;99.90;;;;;;5089385;28;20163;-68
2022/02/27 05:15:11;;;;;;;2.65;1.90;;;2.40;99.90;;;;;;5087923;28;20175;-68
2022/02/27 05:17:37;;;;;;;3.10;2.08;;;2.40;99.90;;;;;;5089299;28;20181;-68
2022/02/27 05:20:05;;;;;;;2.45;1.63;;;2.40;99.90;;;;;;5087754;28;20203;-68
2022/02/27 05:22:30;;;;;;;2.35;1.52;;;2.40;99.90;;;;;;5089325;28;20243;-68
2022/02/27 05:24:56;;;;;;;5.00;2.20;;;2.40;99.90;;;;;;5089165;28;20188;-68
2022/02/27 05:27:22;;;;;;;3.75;2.38;;;2.50;99.90;;;;;;5087948;28;20261;-68
2022/02/27 05:29:48;;;;;;;4.00;1.58;;;2.50;99.90;;;;;;5089078;28;20202;-68
2022/02/27 05:32:14;;;;;;;3.45;1.63;;;2.40;99.90;;;;;;5089785;28;20247;-68
2022/02/27 05:34:41;;;;;;;2.05;1.50;;;2.40;99.90;;;;;;5093286;28;20170;-68
2022/02/27 05:37:07;;;;;;;3.65;1.88;;;2.50;99.90;;;;;;5093355;28;20186;-68
2022/02/27 05:39:32;;;;;;;2.58;1.85;;;2.60;99.90;;;;;;5093094;28;20184;-68
2022/02/27 05:41:58;;;;;;;3.28;2.13;;;2.50;99.90;;;;;;5093153;28;20164;-68
2022/02/27 05:44:24;;;;;;;4.00;1.90;;;2.50;99.90;;;;;;5093104;28;20190;-69
2022/02/27 05:46:51;;;;;;;4.78;2.38;;;2.50;99.90;;;;;;5093170;28;20589;-68
2022/02/27 05:49:17;;;;;;;2.78;2.08;;;2.50;99.90;;;;;;5092920;28;20188;-68
2022/02/27 05:51:47;;;;;;;2.72;1.67;;;2.50;99.90;;;;;;5093088;28;20152;-69
2022/02/27 05:54:14;;;;;;;3.13;1.88;;;2.50;99.90;;;;;;5092844;28;20194;-68
2022/02/27 05:56:40;;;;;;;3.20;2.05;;;2.60;99.90;;;;;;5092947;28;20160;-68
2022/02/27 05:59:06;;;;;;;3.03;1.95;;;2.60;99.90;;;;;;5092773;28;20198;-68
2022/02/27 06:01:32;;;;;;;1.73;1.45;;;2.70;99.90;;;;;;5092840;28;20551;-68
2022/02/27 06:03:58;;;;;;;4.22;2.40;;;2.70;99.90;;;;;;5092524;28;20228;-68
2022/02/27 06:06:24;;;;;;;2.92;1.92;;;2.70;99.90;;;;;;5092590;28;20161;-68
2022/02/27 06:08:49;;;;;;;3.67;2.17;;;2.80;99.90;;;;;;5092639;28;20194;-68
2022/02/27 06:11:16;;;;;;;2.95;2.03;;;2.90;99.90;;;;;;5092696;28;20176;-68
2022/02/27 06:13:41;;;;;;;3.63;1.88;;;3.00;99.90;;;;;;5091479;28;20495;-68
2022/02/27 06:16:07;;;;;;;5.22;2.33;;;3.00;99.90;;;;;;5092537;28;20210;-68
2022/02/27 06:18:33;;;;;;;4.78;2.42;;;3.00;99.90;;;;;;5092315;28;20193;-68
2022/02/27 06:20:59;;;;;;;3.85;2.10;;;3.10;99.90;;;;;;5092503;28;20168;-68
2022/02/27 06:23:25;;;;;;;2.13;1.92;;;3.10;99.90;;;;;;5092543;28;20178;-68
2022/02/27 06:25:51;;;;;;;2.40;1.63;;;3.20;99.90;;;;;;5092258;28;20243;-68
2022/02/27 06:28:17;;;;;;;3.28;1.92;;;3.20;99.90;;;;;;5092255;28;20190;-68
2022/02/27 06:30:43;;;;;;;4.90;2.15;;;3.20;99.90;;;;;;5092236;28;20176;-69
2022/02/27 06:33:08;;;;;;;3.53;1.92;;;3.20;99.90;;;;;;5092260;28;20148;-68
2022/02/27 06:35:34;;;;;;;4.05;2.00;;;3.20;99.90;;;;;;5090832;28;20228;-68
2022/02/27 06:38:00;;;;;;;2.72;1.98;;;3.20;99.90;;;;;;5092005;28;20163;-68
2022/02/27 06:40:26;;;;;;;4.30;1.85;;;3.20;99.90;;;;;;5092072;28;20164;-68
2022/02/27 06:42:53;;;;;;;3.35;1.80;;;3.20;99.90;;;;;;5091993;28;20164;-68
2022/02/27 06:45:18;;;;;;;5.50;2.72;;;3.30;99.90;;;;;;5090887;28;20187;-68
2022/02/27 06:47:45;;;;;;;3.33;1.80;;;3.40;99.90;;;;;;5091965;28;20160;-68
2022/02/27 06:50:12;;;;;;;3.53;2.17;;;3.40;99.90;;;;;;5091751;28;20253;-68
2022/02/27 06:52:39;;;;;;;6.20;2.20;;;3.50;99.90;;;;;;5092084;28;20156;-68
2022/02/27 06:55:05;;;;;;;2.08;1.65;;;3.50;99.90;;;;;;5091863;28;20542;-68
2022/02/27 06:57:31;;;;;;;4.80;2.38;;;3.60;99.90;;;;;;5091718;28;20156;-69
2022/02/27 06:59:57;;;;;;;5.03;2.30;;;3.90;99.90;;;;;;5091694;28;20208;-68
2022/02/27 07:02:23;;;;;;;4.47;2.03;;;3.90;99.90;;;;;;5091488;28;20186;-68
2022/02/27 07:04:49;;;;;;;4.35;2.00;;;3.90;99.90;;;;;;5091567;28;20188;-68
2022/02/27 07:07:15;;;;;;;4.20;1.90;;;4.00;99.90;;;;;;5091554;28;20239;-68
2022/02/27 07:09:41;;;;;;;3.00;2.38;;;4.20;99.90;;;;;;5091383;28;20246;-68
2022/02/27 07:12:07;;;;;;;2.67;1.55;;;4.30;99.90;;;;;;5091604;28;20182;-68
2022/02/27 07:14:33;;;;;;;6.80;2.30;;;4.20;99.90;;;;;;5090261;28;20321;-68
2022/02/27 07:16:59;;;;;;;6.38;2.55;;;4.20;99.90;;;;;;5090082;28;20179;-68
2022/02/27 07:19:25;;;;;;;6.00;2.50;;;4.30;99.90;;;;;;5091222;28;20271;-68
2022/02/27 07:21:51;;;;;;;5.20;2.45;;;4.30;99.90;;;;;;5091287;28;20644;-68
2022/02/27 07:24:18;;;;;;;4.28;2.10;;;4.40;99.90;;;;;;5091144;28;20191;-68
2022/02/27 07:26:44;;;;;;;5.18;2.67;;;4.40;99.90;;;;;;5091193;28;20164;-68
2022/02/27 07:29:10;;;;;;;6.90;2.17;;;4.70;99.90;;;;;;5091136;28;20203;-68
2022/02/27 07:31:36;;;;;;;4.47;2.63;;;4.60;99.90;;;;;;5089807;28;20197;-67
2022/02/27 07:34:02;;;;;;;5.35;2.65;;;4.70;99.90;;;;;;5091063;28;20160;-68
2022/02/27 07:36:28;;;;;;;5.18;3.30;;;5.40;99.90;;;;;;5091023;28;20605;-68
2022/02/27 07:38:55;;;;;;;6.03;2.75;;;6.40;99.90;;;;;;5091014;28;20198;-67
2022/02/27 07:41:20;;;;;;;3.33;2.88;;;5.50;99.90;;;;;;5090901;28;20167;-68
2022/02/27 07:43:46;;;;;;;4.18;2.50;;;5.00;99.90;;;;;;5090673;28;20684;-68
2022/02/27 07:46:12;;;;;;;5.07;2.25;;;5.40;99.90;;;;;;5090796;28;20156;-68
2022/02/27 07:48:38;;;;;;;3.45;3.00;;;5.50;99.90;;;;;;5090707;28;20277;-68
2022/02/27 07:51:04;;;;;;;4.88;2.17;;;5.70;99.90;;;;;;5090606;28;20179;-68
2022/02/27 07:53:30;;;;;;;6.03;2.47;;;5.70;99.90;;;;;;5090741;28;20164;-68
2022/02/27 07:55:55;;;;;;;5.15;2.60;;;5.70;99.90;;;;;;5090480;28;20160;-68
2022/02/27 07:58:21;;;;;;;7.03;2.85;;;5.80;99.90;;;;;;5090563;28;20192;-68
2022/02/27 08:00:47;;;;;;;4.20;2.50;;;6.10;99.90;;;;;;5090497;28;20183;-67
2022/02/27 08:03:13;;;;;;;6.80;3.30;;;5.90;99.90;;;;;;5088809;28;20224;-67
2022/02/27 08:05:40;;;;;;;6.20;3.10;;;6.70;99.90;;;;;;5090307;28;20192;-67
2022/02/27 08:08:06;;;;;;;4.18;2.83;;;8.10;97.50;;;;;;5090223;28;20164;-68
2022/02/27 08:10:32;;;;;;;2.92;2.33;;;7.30;98.30;;;;;;5090272;28;20243;-67
2022/02/27 08:12:58;;;;;;;4.13;2.45;;;9.20;96.20;;;;;;5090211;28;20214;-67
2022/02/27 08:15:24;;;;;;;5.28;2.67;;;10.10;94.80;;;;;;5090135;28;20168;-68
2022/02/27 08:17:54;;;;;;;6.03;3.55;;;8.70;96.30;;;;;;5090188;28;20171;-68
2022/02/27 08:20:21;;;;;;;6.28;2.85;;;9.00;96.00;;;;;;5090115;28;20167;-68
2022/02/27 08:22:47;;;;;;;4.70;3.15;;;8.50;96.40;;;;;;5090039;28;20165;-67
2022/02/27 08:25:15;;;;;;;3.50;2.20;;;9.80;95.20;;;;;;5089941;28;20192;-68
2022/02/27 08:27:42;;;;;;;3.65;2.33;;;10.90;94.00;;;;;;5090019;28;20220;-68
2022/02/27 08:30:09;;;;;;;3.75;2.38;;;12.10;92.70;;;;;;5089898;28;20215;-68
2022/02/27 08:32:35;;;;;;;4.90;2.45;;;12.30;92.40;;;;;;5089970;28;20178;-68
2022/02/27 08:35:01;;;;;;;5.55;3.13;;;11.00;93.40;;;;;;5089768;28;20163;-69
2022/02/27 08:37:27;;;;;;;4.28;2.95;;;11.70;92.70;;;;;;5089837;28;20164;-68
2022/02/27 08:39:53;;;;;;;7.45;2.67;;;11.70;92.40;;;;;;5089681;28;20202;-67
2022/02/27 08:42:19;;;;;;;5.78;2.60;;;10.90;93.10;;;;;;5089598;28;20164;-69
2022/02/27 08:44:45;;;;;;;7.28;2.90;;;12.50;91.70;;;;;;5089344;28;20187;-68
2022/02/27 08:47:10;;;;;;;3.05;2.28;;;10.20;93.40;;;;;;5089575;28;20183;-68
2022/02/27 08:49:36;;;;;;;3.75;2.58;;;9.10;93.70;;;;;;5089496;28;20191;-68
2022/02/27 08:52:03;;;;;;;4.93;3.33;;;9.20;94.50;;;;;;5088234;28;20164;-68
2022/02/27 08:54:29;;;;;;;4.78;2.50;;;9.30;93.70;;;;;;5089440;28;20247;-67
2022/02/27 08:56:55;;;;;;;3.60;2.08;;;9.20;94.40;;;;;;5089510;28;20202;-67
2022/02/27 08:59:21;;;;;;;3.05;2.30;;;11.60;91.90;;;;;;5088960;28;20237;-66
2022/02/27 09:01:47;;;;;;;4.32;2.88;;;11.80;91.40;;;;;;5088367;28;20175;-68
2022/02/27 09:04:12;;;;;;;3.70;2.65;;;11.90;90.50;;;;;;5089215;28;20253;-68
2022/02/27 09:06:39;;;;;;;3.92;2.05;;;10.30;92.10;;;;;;5087703;28;20195;-68
2022/02/27 09:09:04;;;;;;;9.38;2.45;;;9.10;93.10;;;;;;5089077;28;20185;-68
2022/02/27 09:11:30;;;;;;;6.97;2.60;;;10.20;92.90;;;;;;5089433;28;20179;-68
2022/02/27 09:13:56;;;;;;;4.18;2.10;;;9.00;93.20;;;;;;5089371;28;20156;-65
2022/02/27 09:16:22;;;;;;;3.65;2.20;;;9.80;92.10;;;;;;5087919;28;20182;-67
2022/02/27 09:18:48;;;;;;;3.05;2.35;;;8.80;93.30;;;;;;5089146;28;20192;-66
2022/02/27 09:21:14;;;;;;;6.70;2.10;;;8.40;94.30;;;;;;5089199;28;20167;-68
2022/02/27 09:23:40;;;;;;;6.80;2.22;;;9.80;92.80;;;;;;5089230;28;20160;-68
2022/02/27 09:26:06;;;;;;;5.65;3.22;;;10.10;92.20;;;;;;5089232;28;20213;-68
2022/02/27 09:28:32;;;;;;;3.35;2.03;;;9.60;92.30;;;;;;5087900;28;20221;-68
2022/02/27 09:30:58;;;;;;;2.42;1.70;;;8.70;92.90;;;;;;5089235;28;20207;-68
2022/02/27 09:33:25;;;;;;;4.15;2.15;;;7.70;94.10;;;;;;5089138;28;20551;-66
2022/02/27 09:35:53;;;;;;;3.63;2.10;;;8.40;93.30;;;;;;5089091;28;20175;-66
2022/02/27 09:38:19;;;;;;;3.60;2.28;;;7.80;94.10;;;;;;5087733;28;20179;-67
2022/02/27 09:40:52;;;;;;;7.18;3.15;;;8.30;93.40;;;;;;5089141;28;20163;-66
2022/02/27 09:43:21;;;;;;;3.55;2.38;;;8.20;93.50;;;;;;5089123;28;20164;-67
2022/02/27 09:45:48;;;;;;;5.75;2.67;;;10.00;92.30;;;;;;5088891;28;20188;-67
2022/02/27 09:48:14;;;;;;;4.80;2.10;;;10.20;91.90;;;;;;5089019;28;20168;-67
2022/02/27 09:50:41;;;;;;;6.20;2.13;;;8.50;93.00;;;;;;5088966;28;20170;-66
2022/02/27 09:53:09;;;;;;;2.80;2.10;;;7.90;93.50;;;;;;5088961;28;20183;-67
2022/02/27 09:55:37;;;;;;;5.90;3.05;;;8.10;92.70;;;;;;5088905;28;20204;-67
2022/02/27 09:58:03;;;;;;;4.53;1.90;;;8.10;93.10;;;;;;5088807;28;20157;-68
2022/02/27 10:00:30;;;;;;;4.13;2.30;;;8.30;92.80;;;;;;5088829;28;20174;-68
2022/02/27 10:03:12;;;;;;;2.53;2.00;;;8.50;92.40;;;;;;5088655;28;20215;-67
2022/02/27 10:05:40;;;;;;;3.30;2.05;;;9.30;92.00;;;;;;5081414;28;20200;-66
2022/02/27 10:08:08;;;;;;;2.85;1.90;;;9.10;91.20;;;;;;5081931;28;20176;-66
2022/02/27 10:10:34;;;;;;;3.72;2.20;;;8.90;92.10;;;;;;5071090;28;20173;-67
2022/02/27 10:13:00;;;;;;;3.50;1.70;;;9.50;91.30;;;;;;5070911;28;20168;-67
2022/02/27 10:15:27;;;;;;;2.95;2.65;;;8.90;92.50;;;;;;5088702;28;20152;-67
2022/02/27 10:17:53;;;;;;;4.65;2.42;;;9.50;91.10;;;;;;5088662;28;20616;-68
2022/02/27 10:20:23;;;;;;;5.05;2.75;;;9.40;91.30;;;;;;5092158;28;20199;-67
2022/02/27 10:22:51;;;;;;;4.63;2.80;;;8.80;92.60;;;;;;5079328;28;20199;-67
2022/02/27 10:25:21;;;;;;;3.47;2.40;;;8.80;92.20;;;;;;5072166;28;20180;-66
2022/02/27 10:27:56;;;;;;;7.13;2.33;;;9.90;90.80;;;;;;5072196;28;20165;-68
2022/02/27 10:30:33;;;;;;;4.30;2.72;;;9.70;90.70;;;;;;5072023;28;20185;-68
2022/02/27 10:33:01;;;;;;;3.78;2.03;;;9.80;91.80;;;;;;5072095;28;20156;-67
2022/02/27 10:35:33;;;;;;;6.60;2.60;;;10.00;90.00;;;;;;5072032;28;20248;-67
2022/02/27 10:38:00;;;;;;;4.95;2.58;;;9.90;90.70;;;;;;5072028;28;20165;-66
2022/02/27 10:40:37;;;;;;;3.88;2.30;;;10.20;89.40;;;;;;5089318;28;20225;-67
2022/02/27 10:43:08;;;;;;;7.07;2.83;;;8.70;90.90;;;;;;5091903;28;20238;-66
2022/02/27 10:45:34;;;;;;;3.47;2.08;;;8.50;91.60;;;;;;5091737;28;20198;-66
2022/02/27 10:48:05;;;;;;;3.03;2.50;;;8.40;92.00;;;;;;5090529;28;20200;-66
2022/02/27 10:50:32;;;;;;;4.65;2.17;;;8.60;92.20;;;;;;5091952;28;20157;-67
2022/02/27 10:52:58;;;;;;;3.28;2.17;;;8.70;91.90;;;;;;5091828;28;20202;-67
2022/02/27 10:55:25;;;;;;;6.03;3.15;;;9.70;91.30;;;;;;5091738;28;20164;-67
2022/02/27 10:57:52;;;;;;;5.72;3.63;;;9.80;91.20;;;;;;5091715;28;20156;-66
2022/02/27 11:00:24;;;;;;;4.65;2.65;;;9.20;92.40;;;;;;5091599;28;20215;-67
2022/02/27 11:02:51;;;;;;;4.85;2.33;;;9.20;91.90;;;;;;5091527;28;20300;-67
2022/02/27 11:05:22;;;;;;;5.57;2.38;;;9.00;92.00;;;;;;5090381;28;20195;-66
2022/02/27 11:07:50;;;;;;;5.45;2.47;;;8.80;92.20;;;;;;5070264;28;20175;-67
2022/02/27 11:10:18;;;;;;;4.30;2.90;;;8.70;92.50;;;;;;5081620;28;20207;-67
2022/02/27 11:12:45;;;;;;;4.63;2.65;;;8.40;92.90;;;;;;5088829;28;20218;-68
2022/02/27 11:15:17;;;;;;;6.30;3.15;;;8.10;93.50;;;;;;5070119;28;20212;-68
2022/02/27 11:17:44;;;;;;;2.35;1.92;;;8.40;93.20;;;;;;5071451;28;20164;-67
2022/02/27 11:20:12;;;;;;;9.18;2.45;;;9.00;91.80;;;;;;5071030;28;20547;-67
2022/02/27 11:22:38;;;;;;;5.35;2.33;;;9.10;92.10;;;;;;5071176;28;20157;-67
2022/02/27 11:25:08;;;;;;;4.75;2.33;;;10.20;90.90;;;;;;5071085;28;20192;-67
2022/02/27 11:27:36;;;;;;;5.00;2.60;;;10.50;90.40;;;;;;5069672;28;20168;-68
2022/02/27 11:30:04;;;;;;;3.78;2.30;;;10.40;90.10;;;;;;5070307;28;20212;-68
2022/02/27 11:32:30;;;;;;;4.00;2.15;;;9.90;90.50;;;;;;5069647;28;20187;-66
2022/02/27 11:34:56;;;;;;;7.00;2.50;;;10.10;90.30;;;;;;5070939;28;20171;-67
2022/02/27 11:37:51;;;;;;;6.07;2.15;;;9.90;90.90;;;;;;5070957;28;20156;-66
2022/02/27 11:40:28;;;;;;;4.25;2.35;;;10.10;90.70;;;;;;5070856;28;20200;-73
2022/02/27 11:42:55;;;;;;;3.22;2.05;;;10.00;89.70;;;;;;5070833;28;20157;-74
2022/02/27 11:45:44;;;;;;;5.03;2.33;;;10.10;90.30;;;;;;5070600;28;20188;-73
2022/02/27 11:48:10;;;;;;;8.20;2.80;;;11.00;87.50;;;;;;5083586;28;20188;-67
2022/02/27 11:50:43;;;;;;;2.90;2.20;;;10.60;89.00;;;;;;5090775;28;20195;-67
2022/02/27 11:53:20;;;;;;;2.58;2.20;;;10.20;90.10;;;;;;5090889;28;20656;-72
2022/02/27 11:55:47;;;;;;;3.33;2.22;;;10.50;89.30;;;;;;5090750;28;20179;-72
2022/02/27 11:58:34;;;;;;;7.97;2.70;;;10.60;89.00;;;;;;5090452;28;20174;-73
2022/02/27 12:01:03;;;;;;;4.88;2.17;;;11.30;87.70;;;;;;5090447;28;20160;-72
2022/02/27 12:03:32;;;;;;;3.33;2.08;;;11.30;87.00;;;;;;5088872;28;20236;-72
2022/02/27 12:06:08;;;;;;;4.40;2.25;;;11.40;85.10;;;;;;5090368;28;20180;-73
2022/02/27 12:08:42;;;;;;;3.42;1.95;;;11.20;86.40;;;;;;5090322;28;20211;-74
2022/02/27 12:11:26;;;;;;;3.25;2.13;;;11.00;86.40;;;;;;5090218;28;20153;-74
2022/02/27 12:14:01;;;;;;;3.47;2.00;;;10.60;87.10;;;;;;5085655;28;20180;-73
2022/02/27 12:16:42;;;;;;;3.17;2.00;;;10.40;86.10;;;;;;5068666;28;20167;-73
2022/02/27 12:19:34;;;;;;;7.10;2.50;;;10.80;85.50;;;;;;5070045;28;20180;-74
2022/02/27 12:22:00;;;;;;;3.05;2.28;;;10.70;85.70;;;;;;5069485;28;20188;-73
2022/02/27 12:24:31;;;;;;;4.53;2.40;;;10.70;85.30;;;;;;5069940;28;20192;-73
2022/02/27 12:26:59;;;;;;;4.20;2.80;;;10.50;86.20;;;;;;5069856;28;20183;-73
2022/02/27 12:29:33;;;;;;;2.70;2.30;;;10.40;86.20;;;;;;5069926;28;20188;-73
2022/02/27 12:32:10;;;;;;;2.92;2.35;;;10.80;87.10;;;;;;5069927;28;20153;-72
2022/02/27 12:34:40;;;;;;;5.78;2.65;;;11.20;87.00;;;;;;5069808;28;20165;-73
2022/02/27 12:37:08;;;;;;;4.10;2.65;;;10.90;87.20;;;;;;5069765;28;20220;-74
2022/02/27 12:39:36;;;;;;;4.30;2.75;;;10.70;89.50;;;;;;5069704;28;20245;-73
2022/02/27 12:42:05;;;;;;;5.68;2.05;;;10.20;90.00;;;;;;5067474;28;20169;-72
2022/02/27 12:44:33;;;;;;;4.85;2.92;;;9.80;90.60;;;;;;5069516;28;20243;-72
2022/02/27 12:47:01;;;;;;;4.88;2.58;;;9.60;90.80;;;;;;5073139;28;20190;-74
2022/02/27 12:52:22;;;;;;;6.43;3.17;;;9.20;90.20;;;;;;5089495;28;20155;-73
2022/02/27 12:54:51;;;;;;;4.78;3.28;;;9.00;92.20;;;;;;5089435;28;20160;-73
2022/02/27 12:57:18;;;;;;;7.65;3.50;;;8.90;93.00;;;;;;5089393;28;20155;-73
2022/02/27 12:59:46;;;;;;;8.82;2.67;;;9.10;92.90;;;;;;5088994;28;20184;-72